createdAt,value
2023-01-17T00:02:11.246Z,0.90
2023-01-17T00:04:37.606Z,0.85
2023-01-17T00:07:04.009Z,0.70
2023-01-17T00:09:30.366Z,0.65
2023-01-17T00:11:57.999Z,1.00
2023-01-17T00:14:24.470Z,0.83
2023-01-17T00:16:50.783Z,0.75
2023-01-17T00:19:17.299Z,0.90
2023-01-17T00:21:43.581Z,1.08
2023-01-17T00:24:09.956Z,1.13
2023-01-17T00:26:36.300Z,0.83
2023-01-17T00:29:02.603Z,1.10
2023-01-17T00:31:28.901Z,0.90
2023-01-17T00:33:55.218Z,0.85
2023-01-17T00:36:21.559Z,1.35
2023-01-17T00:38:47.832Z,0.90
2023-01-17T00:41:14.915Z,0.68
2023-01-17T00:43:41.547Z,0.95
2023-01-17T00:46:08.253Z,0.60
2023-01-17T00:48:37.010Z,0.70
2023-01-17T00:51:03.522Z,0.70
2023-01-17T00:53:29.974Z,0.52
2023-01-17T00:55:56.315Z,0.82
2023-01-17T00:58:22.605Z,0.70
2023-01-17T01:00:49.413Z,1.00
2023-01-17T01:03:16.576Z,0.70
2023-01-17T01:05:43.004Z,0.60
2023-01-17T01:08:24.122Z,0.50
2023-01-17T01:10:50.471Z,0.77
2023-01-17T01:13:17.027Z,1.15
2023-01-17T01:15:43.309Z,0.60
2023-01-17T01:18:11.759Z,0.80
2023-01-17T01:20:38.063Z,0.73
2023-01-17T01:23:05.487Z,0.50
2023-01-17T01:25:31.819Z,0.77
2023-01-17T01:28:07.149Z,0.60
2023-01-17T01:30:33.475Z,0.70
2023-01-17T01:33:07.466Z,0.82
2023-01-17T01:35:33.831Z,0.50
2023-01-17T01:38:02.272Z,0.68
2023-01-17T01:40:28.656Z,0.60
2023-01-17T01:42:57.868Z,0.80
2023-01-17T01:45:26.841Z,0.70
2023-01-17T01:48:16.534Z,0.57
2023-01-17T01:50:43.095Z,0.90
2023-01-17T01:53:10.424Z,0.70
2023-01-17T01:55:40.295Z,0.70
2023-01-17T01:58:28.541Z,0.90
2023-01-17T02:00:55.050Z,0.98
2023-01-17T02:03:25.761Z,0.80
2023-01-17T02:05:52.536Z,0.77
2023-01-17T02:08:21.375Z,0.75
2023-01-17T02:10:49.400Z,0.90
2023-01-17T02:13:19.009Z,0.75
2023-01-17T02:15:56.911Z,0.80
2023-01-17T02:18:34.934Z,0.83
2023-01-17T02:21:14.743Z,0.70
2023-01-17T02:23:56.031Z,1.40
2023-01-17T02:27:07.075Z,1.00
2023-01-17T02:29:45.286Z,0.90
2023-01-17T02:32:29.176Z,0.70
2023-01-17T02:35:13.201Z,0.60
2023-01-17T02:37:55.755Z,0.88
2023-01-17T02:40:31.784Z,0.60
2023-01-17T02:43:02.498Z,0.77
2023-01-17T02:45:29.126Z,0.70
2023-01-17T02:47:55.568Z,0.60
2023-01-17T02:50:26.007Z,0.93
2023-01-17T02:53:36.704Z,0.80
2023-01-17T02:56:20.129Z,0.60
2023-01-17T02:59:13.981Z,0.70
2023-01-17T03:01:56.355Z,0.70
2023-01-17T03:04:41.845Z,0.95
2023-01-17T03:07:22.236Z,0.60
2023-01-17T03:09:52.371Z,0.70
2023-01-17T03:12:20.035Z,0.50
2023-01-17T03:14:46.347Z,0.70
2023-01-17T03:17:13.070Z,0.93
2023-01-17T03:19:39.815Z,0.70
2023-01-17T03:22:06.246Z,1.08
2023-01-17T03:24:32.600Z,0.70
2023-01-17T03:26:58.960Z,0.70
2023-01-17T03:29:25.237Z,0.57
2023-01-17T03:31:51.549Z,0.85
2023-01-17T03:34:17.907Z,0.43
2023-01-17T03:36:44.324Z,0.83
2023-01-17T03:39:10.675Z,0.60
2023-01-17T03:41:37.710Z,0.60
2023-01-17T03:44:04.120Z,0.68
2023-01-17T03:46:30.441Z,0.40
2023-01-17T03:48:56.905Z,0.50
2023-01-17T03:51:23.325Z,0.60
2023-01-17T03:53:49.795Z,0.80
2023-01-17T03:56:16.124Z,0.65
2023-01-17T03:58:42.593Z,0.90
2023-01-17T04:01:09.058Z,0.67
2023-01-17T04:03:35.669Z,0.90
2023-01-17T04:06:02.206Z,0.68
2023-01-17T04:08:28.488Z,0.73
2023-01-17T04:10:54.778Z,1.13
2023-01-17T04:13:21.077Z,0.77
2023-01-17T04:15:49.400Z,0.80
2023-01-17T04:18:20.836Z,0.55
2023-01-17T04:20:47.255Z,0.77
2023-01-17T04:23:13.604Z,0.70
2023-01-17T04:25:40.115Z,0.93
2023-01-17T04:28:06.411Z,0.95
2023-01-17T04:30:33.520Z,1.05
2023-01-17T04:33:00.084Z,0.60
2023-01-17T04:35:26.776Z,0.80
2023-01-17T04:37:53.268Z,0.70
2023-01-17T04:40:20.046Z,0.60
2023-01-17T04:42:47.619Z,0.70
2023-01-17T04:45:14.985Z,1.00
2023-01-17T04:47:41.456Z,1.00
2023-01-17T04:50:08.659Z,0.87
2023-01-17T04:52:35.004Z,0.98
2023-01-17T04:55:01.417Z,0.55
2023-01-17T04:57:27.776Z,0.60
2023-01-17T04:59:54.213Z,0.80
2023-01-17T05:02:20.663Z,0.60
2023-01-17T05:04:47.098Z,0.80
2023-01-17T05:07:13.842Z,1.40
2023-01-17T05:09:40.294Z,0.90
2023-01-17T05:12:06.632Z,1.25
2023-01-17T05:14:32.955Z,1.03
2023-01-17T05:16:59.268Z,1.05
2023-01-17T05:19:27.271Z,1.10
2023-01-17T05:21:53.615Z,1.15
2023-01-17T05:24:20.316Z,0.95
2023-01-17T05:26:48.511Z,0.97
2023-01-17T05:29:15.951Z,0.85
2023-01-17T05:31:42.311Z,0.80
2023-01-17T05:34:08.775Z,1.23
2023-01-17T05:36:35.220Z,0.82
2023-01-17T05:39:01.544Z,1.07
2023-01-17T05:41:27.881Z,1.00
2023-01-17T05:43:54.210Z,1.17
2023-01-17T05:46:20.626Z,0.73
2023-01-17T05:48:46.983Z,1.10
2023-01-17T05:51:13.327Z,0.90
2023-01-17T05:53:40.667Z,0.70
2023-01-17T05:56:07.272Z,1.02
2023-01-17T05:58:33.635Z,0.90
2023-01-17T06:01:00.052Z,1.00
2023-01-17T06:03:26.516Z,0.70
2023-01-17T06:05:52.971Z,0.68
2023-01-17T06:08:19.260Z,0.70
2023-01-17T06:10:45.614Z,1.08
2023-01-17T06:13:13.505Z,0.90
2023-01-17T06:15:40.110Z,0.60
2023-01-17T06:18:13.255Z,0.90
2023-01-17T06:20:40.019Z,1.00
2023-01-17T06:23:08.778Z,0.70
2023-01-17T06:25:45.698Z,0.93
2023-01-17T06:28:13.686Z,0.90
2023-01-17T06:30:40.667Z,0.70
2023-01-17T06:33:07.315Z,0.88
2023-01-17T06:35:33.908Z,0.73
2023-01-17T06:38:00.416Z,0.70
2023-01-17T06:40:28.390Z,0.70
2023-01-17T06:42:55.058Z,0.82
2023-01-17T06:45:21.498Z,0.95
2023-01-17T06:47:47.789Z,0.80
2023-01-17T06:50:15.119Z,0.70
2023-01-17T06:52:42.501Z,1.00
2023-01-17T06:55:09.904Z,0.68
2023-01-17T06:57:36.322Z,0.90
2023-01-17T07:00:04.264Z,0.80
2023-01-17T07:02:30.715Z,0.98
2023-01-17T07:04:57.033Z,0.63
2023-01-17T07:07:23.414Z,1.25
2023-01-17T07:09:49.730Z,0.80
2023-01-17T07:12:16.130Z,0.60
2023-01-17T07:14:42.452Z,0.80
2023-01-17T07:17:08.789Z,0.70
2023-01-17T07:19:35.495Z,0.70
2023-01-17T07:22:01.884Z,1.35
2023-01-17T07:24:28.276Z,0.90
2023-01-17T07:26:54.632Z,0.63
2023-01-17T07:29:20.929Z,0.70
2023-01-17T07:31:48.891Z,0.88
2023-01-17T07:34:15.281Z,1.10
2023-01-17T07:36:41.572Z,0.95
2023-01-17T07:39:10.176Z,1.25
2023-01-17T07:41:36.554Z,0.80
2023-01-17T07:44:02.883Z,1.10
2023-01-17T07:46:29.265Z,0.93
2023-01-17T07:48:55.649Z,1.23
2023-01-17T07:51:21.937Z,0.80
2023-01-17T07:53:48.245Z,0.77
2023-01-17T07:56:14.636Z,1.00
2023-01-17T07:58:42.054Z,1.10
2023-01-17T08:01:10.951Z,0.80
2023-01-17T08:03:37.765Z,1.10
2023-01-17T08:06:04.374Z,0.70
2023-01-17T08:08:31.007Z,0.90
2023-01-17T08:10:57.650Z,1.00
2023-01-17T08:13:24.211Z,0.90
2023-01-17T08:15:51.607Z,1.00
2023-01-17T08:18:18.259Z,0.90
2023-01-17T08:20:44.883Z,0.90
2023-01-17T08:23:11.493Z,0.90
2023-01-17T08:25:38.525Z,1.20
2023-01-17T08:28:05.624Z,1.10
2023-01-17T08:30:32.014Z,0.90
2023-01-17T08:32:58.314Z,0.82
2023-01-17T08:35:24.605Z,0.80
2023-01-17T08:37:54.124Z,1.10
2023-01-17T08:40:20.653Z,1.13
2023-01-17T08:42:57.739Z,1.00
2023-01-17T08:45:24.455Z,1.15
2023-01-17T08:47:51.316Z,0.75
2023-01-17T08:50:17.910Z,0.93
2023-01-17T08:52:44.209Z,1.13
2023-01-17T08:55:10.575Z,0.90
2023-01-17T08:57:37.052Z,0.80
2023-01-17T09:00:03.725Z,1.20
2023-01-17T09:02:30.233Z,1.15
2023-01-17T09:04:56.544Z,1.23
2023-01-17T09:07:22.889Z,1.00
2023-01-17T09:09:49.271Z,1.17
2023-01-17T09:12:15.601Z,1.30
2023-01-17T09:14:41.898Z,1.67
2023-01-17T09:17:08.299Z,1.50
2023-01-17T09:19:34.716Z,1.20
2023-01-17T09:22:02.016Z,1.80
2023-01-17T09:24:28.374Z,1.00
2023-01-17T09:26:54.669Z,1.52
2023-01-17T09:29:21.025Z,1.50
2023-01-17T09:31:47.364Z,1.03
2023-01-17T09:34:14.020Z,1.33
2023-01-17T09:36:41.992Z,1.73
2023-01-17T09:39:10.811Z,1.10
2023-01-17T09:41:46.271Z,1.10
2023-01-17T09:44:41.581Z,1.40
2023-01-17T09:47:18.381Z,1.02
2023-01-17T09:49:46.832Z,1.63
2023-01-17T09:52:23.023Z,1.10
2023-01-17T09:54:50.080Z,0.95
2023-01-17T09:57:44.349Z,0.93
2023-01-17T10:00:41.666Z,1.42
2023-01-17T10:03:42.587Z,0.98
2023-01-17T10:06:33.216Z,0.98
2023-01-17T10:09:25.642Z,0.90
2023-01-17T10:12:13.995Z,1.20
2023-01-17T10:15:11.067Z,1.20
2023-01-17T10:17:49.171Z,1.48
2023-01-17T10:20:40.323Z,1.25
2023-01-17T10:23:28.991Z,0.95
2023-01-17T10:25:59.879Z,1.33
2023-01-17T10:28:34.174Z,1.20
2023-01-17T10:31:27.729Z,1.02
2023-01-17T10:34:04.296Z,1.20
2023-01-17T10:36:35.952Z,1.00
2023-01-17T10:39:24.259Z,1.20
2023-01-17T10:42:01.765Z,1.25
2023-01-17T10:44:48.600Z,1.27
2023-01-17T10:47:20.934Z,1.98
2023-01-17T10:49:53.688Z,1.58
2023-01-17T10:52:59.834Z,1.40
2023-01-17T10:55:26.118Z,1.52
2023-01-17T10:57:53.321Z,1.40
2023-01-17T11:00:33.702Z,1.10
2023-01-17T11:03:01.560Z,1.58
2023-01-17T11:05:30.868Z,1.00
2023-01-17T11:07:59.557Z,1.02
2023-01-17T11:10:37.763Z,1.30
2023-01-17T11:13:07.255Z,0.90
2023-01-17T11:15:39.168Z,1.00
2023-01-17T11:18:14.576Z,0.90
2023-01-17T11:20:41.935Z,1.30
2023-01-17T11:23:22.221Z,1.60
2023-01-17T11:25:51.763Z,1.40
2023-01-17T11:28:28.392Z,1.48
2023-01-17T11:31:01.742Z,1.93
2023-01-17T11:33:40.270Z,1.30
2023-01-17T11:36:14.254Z,1.40
2023-01-17T11:38:57.051Z,1.48
2023-01-17T11:41:25.080Z,1.60
2023-01-17T11:43:53.044Z,1.47
2023-01-17T11:46:19.746Z,1.20
2023-01-17T11:48:53.911Z,1.30
2023-01-17T11:51:28.115Z,1.67
2023-01-17T11:54:08.299Z,1.40
2023-01-17T11:56:36.980Z,1.40
2023-01-17T11:59:32.284Z,1.30
2023-01-17T12:02:21.007Z,1.50
2023-01-17T12:05:16.925Z,1.45
2023-01-17T12:07:53.016Z,1.20
2023-01-17T12:10:37.556Z,1.30
2023-01-17T12:13:18.370Z,1.27
2023-01-17T12:15:44.646Z,1.00
2023-01-17T12:18:43.049Z,1.27
2023-01-17T12:21:17.299Z,1.00
2023-01-17T12:24:25.823Z,1.10
2023-01-17T12:27:08.665Z,1.27
2023-01-17T12:29:49.080Z,1.20
2023-01-17T12:32:21.428Z,1.17
2023-01-17T12:35:00.585Z,1.27
2023-01-17T12:37:33.797Z,1.20
2023-01-17T12:40:13.009Z,1.42
2023-01-17T12:42:48.737Z,1.38
2023-01-17T12:45:39.497Z,1.40
2023-01-17T12:48:11.607Z,1.00
2023-01-17T12:50:41.380Z,1.20
2023-01-17T12:53:45.438Z,1.23
2023-01-17T12:56:21.096Z,1.30
2023-01-17T12:58:54.334Z,1.40
2023-01-17T13:01:29.990Z,1.25
2023-01-17T13:04:21.233Z,1.20
2023-01-17T13:07:01.119Z,1.00
2023-01-17T13:09:45.502Z,1.20
2023-01-17T13:12:17.827Z,1.17
2023-01-17T13:14:47.605Z,1.17
2023-01-17T13:17:26.669Z,1.30
2023-01-17T13:20:11.577Z,1.30
2023-01-17T13:22:39.852Z,1.00
2023-01-17T13:25:38.341Z,0.80
2023-01-17T13:28:29.881Z,0.68
2023-01-17T13:31:13.483Z,1.00
2023-01-17T13:34:04.925Z,1.10
2023-01-17T13:37:05.072Z,1.17
2023-01-17T13:39:37.111Z,0.80
2023-01-17T13:42:12.361Z,0.85
2023-01-17T13:44:39.045Z,1.30
2023-01-17T13:47:07.065Z,1.10
2023-01-17T13:49:42.653Z,1.20
2023-01-17T13:52:26.862Z,0.93
2023-01-17T13:55:04.463Z,1.10
2023-01-17T13:57:33.176Z,1.10
2023-01-17T14:00:35.822Z,1.00
2023-01-17T14:03:02.580Z,1.20
2023-01-17T14:05:37.769Z,1.02
2023-01-17T14:08:13.509Z,1.17
2023-01-17T14:10:41.354Z,1.20
2023-01-17T14:13:39.575Z,1.05
2023-01-17T14:16:27.974Z,0.85
2023-01-17T14:18:55.795Z,0.90
2023-01-17T14:21:25.079Z,0.90
2023-01-17T14:23:58.452Z,0.77
2023-01-17T14:26:46.304Z,0.60
2023-01-17T14:29:40.797Z,1.27
2023-01-17T14:32:11.653Z,0.68
2023-01-17T14:34:38.224Z,1.00
2023-01-17T14:37:14.482Z,1.10
2023-01-17T14:39:50.102Z,0.90
2023-01-17T14:42:20.660Z,0.80
2023-01-17T14:44:50.603Z,0.73
2023-01-17T14:47:17.157Z,0.80
2023-01-17T14:49:44.056Z,0.80
2023-01-17T14:52:16.395Z,0.73
2023-01-17T14:54:51.538Z,0.80
2023-01-17T14:57:28.336Z,0.98
2023-01-17T15:00:20.830Z,0.90
2023-01-17T15:02:48.609Z,0.80
2023-01-17T15:05:17.073Z,0.90
2023-01-17T15:07:46.420Z,1.20
2023-01-17T15:10:15.342Z,1.05
2023-01-17T15:12:42.857Z,1.10
2023-01-17T15:15:29.422Z,0.70
2023-01-17T15:18:13.657Z,0.95
2023-01-17T15:20:43.503Z,1.00
2023-01-17T15:23:16.755Z,1.15
2023-01-17T15:25:43.205Z,0.75
2023-01-17T15:28:12.521Z,0.90
2023-01-17T15:31:00.927Z,0.98
2023-01-17T15:33:27.569Z,0.90
2023-01-17T15:36:02.820Z,0.80
2023-01-17T15:38:38.232Z,0.80
2023-01-17T15:41:10.237Z,0.50
2023-01-17T15:43:36.821Z,0.85
2023-01-17T15:46:03.488Z,0.77
2023-01-17T15:48:43.394Z,0.80
2023-01-17T15:51:12.226Z,0.80
2023-01-17T15:53:41.451Z,0.80
2023-01-17T15:56:29.914Z,0.73
2023-01-17T15:59:20.192Z,0.90
2023-01-17T16:01:57.100Z,1.10
2023-01-17T16:04:36.266Z,1.15
2023-01-17T16:07:22.722Z,1.10
2023-01-17T16:09:49.673Z,0.85
2023-01-17T16:12:16.198Z,1.00
2023-01-17T16:14:59.557Z,0.90
2023-01-17T16:17:28.830Z,0.80
2023-01-17T16:19:55.169Z,0.90
2023-01-17T16:22:21.504Z,0.80
2023-01-17T16:24:47.850Z,1.00
2023-01-17T16:27:14.199Z,0.95
2023-01-17T16:29:41.998Z,1.20
2023-01-17T16:32:08.383Z,1.63
2023-01-17T16:34:35.811Z,1.60
2023-01-17T16:37:02.812Z,2.20
2023-01-17T16:39:29.619Z,2.58
2023-01-17T16:42:00.737Z,2.65
2023-01-17T16:44:27.156Z,2.27
2023-01-17T16:46:53.605Z,2.40
2023-01-17T16:49:20.042Z,2.63
2023-01-17T16:51:46.911Z,2.50
2023-01-17T16:54:13.299Z,2.67
2023-01-17T16:56:39.576Z,2.17
2023-01-17T16:59:05.859Z,2.50
2023-01-17T17:01:32.411Z,3.03
2023-01-17T17:03:58.860Z,2.40
2023-01-17T17:06:25.228Z,2.80
2023-01-17T17:08:51.561Z,2.90
2023-01-17T17:11:20.989Z,2.50
2023-01-17T17:13:49.031Z,3.10
2023-01-17T17:16:21.585Z,2.45
2023-01-17T17:18:55.101Z,2.90
2023-01-17T17:21:21.716Z,2.70
2023-01-17T17:23:48.017Z,2.72
2023-01-17T17:26:18.056Z,3.10
2023-01-17T17:28:44.381Z,2.95
2023-01-17T17:31:10.776Z,3.22
2023-01-17T17:33:37.298Z,3.13
2023-01-17T17:36:06.193Z,3.08
2023-01-17T17:38:33.204Z,2.88
2023-01-17T17:41:05.073Z,2.92
2023-01-17T17:43:35.756Z,3.15
2023-01-17T17:46:02.174Z,2.90
2023-01-17T17:48:28.594Z,2.72
2023-01-17T17:50:59.856Z,2.90
2023-01-17T17:53:29.539Z,5.30
2023-01-17T17:55:55.963Z,3.80
2023-01-17T17:58:23.340Z,5.33
2023-01-17T18:00:49.836Z,3.53
2023-01-17T18:03:16.201Z,3.70
2023-01-17T18:05:42.627Z,3.72
2023-01-17T18:08:09.128Z,3.22
2023-01-17T18:10:35.440Z,4.03
2023-01-17T18:13:02.069Z,3.50
2023-01-17T18:15:28.430Z,5.15
2023-01-17T18:17:55.017Z,4.43
2023-01-17T18:20:21.521Z,4.20
2023-01-17T18:22:47.859Z,4.77
2023-01-17T18:25:14.335Z,4.32
2023-01-17T18:27:42.990Z,4.95
2023-01-17T18:30:09.989Z,5.95
2023-01-17T18:32:36.352Z,5.65
2023-01-17T18:35:02.646Z,4.10
2023-01-17T18:37:29.925Z,4.20
2023-01-17T18:39:56.325Z,7.47
2023-01-17T18:42:23.500Z,5.72
2023-01-17T18:44:49.793Z,6.82
2023-01-17T18:47:16.100Z,7.07
2023-01-17T18:49:42.373Z,5.75
2023-01-17T18:52:08.691Z,5.00
2023-01-17T18:54:34.987Z,5.13
2023-01-17T18:57:01.415Z,4.70
2023-01-17T18:59:27.697Z,4.67
2023-01-17T19:01:54.149Z,4.70
2023-01-17T19:04:20.697Z,3.92
2023-01-17T19:06:47.726Z,3.15
2023-01-17T19:09:15.417Z,3.33
2023-01-17T19:11:41.899Z,3.43
2023-01-17T19:14:08.257Z,3.80
2023-01-17T19:16:38.396Z,3.25
2023-01-17T19:19:07.880Z,3.10
2023-01-17T19:21:34.595Z,3.40
2023-01-17T19:24:01.287Z,3.17
2023-01-17T19:26:28.146Z,3.63
2023-01-17T19:28:56.732Z,3.10
2023-01-17T19:31:26.309Z,3.47
2023-01-17T19:33:54.582Z,2.80
2023-01-17T19:36:31.072Z,3.00
2023-01-17T19:39:04.767Z,2.78
2023-01-17T19:41:33.170Z,2.72
2023-01-17T19:44:02.578Z,2.50
2023-01-17T19:46:29.495Z,3.13
2023-01-17T19:48:57.195Z,2.90
2023-01-17T19:51:25.299Z,3.35
2023-01-17T19:53:51.628Z,3.00
2023-01-17T19:56:23.803Z,2.88
2023-01-17T19:58:50.380Z,2.55
2023-01-17T20:01:25.513Z,2.70
2023-01-17T20:03:52.445Z,3.40
2023-01-17T20:06:21.881Z,3.15
2023-01-17T20:08:48.785Z,3.40
2023-01-17T20:11:20.013Z,3.63
2023-01-17T20:13:52.947Z,6.43
2023-01-17T20:16:19.347Z,4.47
2023-01-17T20:18:45.758Z,4.13
2023-01-17T20:21:15.816Z,5.40
2023-01-17T20:23:43.618Z,5.57
2023-01-17T20:26:11.356Z,4.07
2023-01-17T20:28:39.526Z,3.60
2023-01-17T20:31:14.580Z,4.05
2023-01-17T20:33:43.026Z,3.50
2023-01-17T20:36:12.378Z,3.63
2023-01-17T20:38:39.309Z,3.40
2023-01-17T20:41:05.909Z,3.75
2023-01-17T20:43:32.226Z,3.90
2023-01-17T20:45:58.660Z,4.32
2023-01-17T20:48:25.015Z,3.97
2023-01-17T20:50:51.323Z,3.20
2023-01-17T20:53:17.755Z,3.78
2023-01-17T20:55:44.115Z,3.70
2023-01-17T20:58:10.519Z,3.90
2023-01-17T21:00:36.818Z,3.53
2023-01-17T21:03:03.336Z,2.90
2023-01-17T21:05:29.638Z,3.05
2023-01-17T21:07:56.269Z,3.30
2023-01-17T21:10:22.709Z,3.03
2023-01-17T21:12:49.013Z,3.53
2023-01-17T21:15:15.449Z,3.17
2023-01-17T21:17:42.081Z,3.28
2023-01-17T21:20:09.196Z,3.05
2023-01-17T21:22:35.567Z,3.22
2023-01-17T21:25:01.895Z,5.07
2023-01-17T21:27:28.291Z,3.80
2023-01-17T21:29:54.595Z,3.50
2023-01-17T21:32:20.909Z,3.50
2023-01-17T21:34:47.291Z,4.25
2023-01-17T21:37:13.813Z,3.83
2023-01-17T21:39:40.133Z,3.27
2023-01-17T21:42:06.573Z,3.45
2023-01-17T21:44:33.119Z,4.07
2023-01-17T21:46:59.403Z,3.70
2023-01-17T21:49:25.787Z,4.45
2023-01-17T21:51:52.186Z,4.73
2023-01-17T21:54:25.953Z,3.63
2023-01-17T21:56:52.321Z,3.60
2023-01-17T21:59:18.864Z,3.40
2023-01-17T22:01:45.275Z,3.63
2023-01-17T22:04:11.798Z,3.53
2023-01-17T22:06:38.145Z,3.95
2023-01-17T22:09:05.185Z,4.07
2023-01-17T22:11:31.738Z,3.97
2023-01-17T22:13:59.136Z,3.72
2023-01-17T22:16:26.857Z,3.40
2023-01-17T22:18:53.351Z,4.20
2023-01-17T22:21:22.348Z,3.65
2023-01-17T22:23:51.336Z,3.47
2023-01-17T22:26:20.020Z,4.25
2023-01-17T22:28:46.635Z,3.80
2023-01-17T22:31:25.019Z,4.50
2023-01-17T22:33:59.888Z,3.88
2023-01-17T22:36:26.755Z,4.03
2023-01-17T22:38:53.437Z,4.38
2023-01-17T22:41:22.332Z,3.67
2023-01-17T22:43:53.783Z,4.05
2023-01-17T22:46:22.930Z,4.38
2023-01-17T22:48:49.774Z,4.30
2023-01-17T22:51:18.066Z,3.90
2023-01-17T22:53:53.683Z,4.17
2023-01-17T22:56:25.587Z,4.05
2023-01-17T22:58:52.524Z,4.20
2023-01-17T23:01:24.342Z,3.65
2023-01-17T23:04:02.279Z,3.80
2023-01-17T23:06:34.237Z,3.63
2023-01-17T23:09:03.352Z,3.95
2023-01-17T23:11:40.553Z,3.25
2023-01-17T23:14:09.313Z,4.00
2023-01-17T23:16:36.816Z,3.70
2023-01-17T23:19:03.214Z,3.57
2023-01-17T23:21:29.866Z,3.92
2023-01-17T23:23:56.245Z,4.10
2023-01-17T23:26:22.634Z,3.67
2023-01-17T23:28:49.028Z,4.18
2023-01-17T23:31:15.426Z,3.50
2023-01-17T23:33:41.815Z,3.63
2023-01-17T23:36:08.109Z,3.70
2023-01-17T23:38:34.424Z,3.88
2023-01-17T23:41:06.185Z,3.78
2023-01-17T23:43:33.294Z,3.80
2023-01-17T23:46:00.548Z,3.92
2023-01-17T23:48:27.497Z,4.25
2023-01-17T23:50:59.470Z,4.22
2023-01-17T23:53:26.285Z,4.43
2023-01-17T23:55:55.216Z,3.90
2023-01-17T23:58:23.745Z,3.42
